Home > Products > Valid Products > TAF

000
FTUS42 TJSJ 310315 AAA
TAFJPS
TAF AMD
TJPS 310315Z 3103/3124 09005KT P6SM SCT030 SCT060
      TEMPO 3103/3105 VRB05KT TSRA BKN020CB BKN030
     FM311500 13012KT P6SM FEW030 SCT060
     FM312330 05005KT P6SM FEW025 SCT070
      AMD NOT SKED TIL 310300=



000
FTUS42 TJSJ 301450 AAA
TAFJBQ
TAF AMD
TJBQ 301450Z 3015/3112 07012KT P6SM VCSH SCT022 SCT050 BKN100
      TEMPO 3015/3016 -TSRA SCT015 BKN030CB
     FM301600 VRB12KT P6SM TSRA BKN025CB BKN040 OVC090
     FM302200 12005KT P6SM VCSH FEW030 SCT070=



000
FTUS42 TJSJ 301406 CCA
TAFJSJ
TAF COR
TJSJ 301406Z 3014/3112 07013KT P6SM VCSH SCT025 SCT050
      TEMPO 3014/3016 -TSRA SCT018 BKN030CB
     FM301700 09012KT P6SM VCTS SCT025CB BKN050 BKN100
     FM302300 11005KT P6SM SCT025=



000
FTUS42 TJSJ 300303 AAB
TAFJSJ
TAF AMD
TJSJ 300303Z 3003/3024 VRB06KT P6SM VCSH SCT025 SCT040 OVC060
      TEMPO 3003/3005 4SM SHRA SCT020 BKN035
     FM301300 08012KT P6SM SCT030 SCT050
     FM302300 09006KT P6SM SCT025=



000
FTUS42 TJSJ 291805 AAA
TAFJMZ
TAF AMD
TJMZ 291805Z 2918/3018 27010KT P6SM VCTS SCT020CB BKN040
      TEMPO 2918/2920 4SM +SHRA SCT015 BKN030
     FM292330 06005KT P6SM VCSH SCT025 SCT110
     FM301500 28008KT P6SM VCTS SCT020CB BKN060
      AMD NOT SKED=



000
FTUS42 TJSJ 290118 AAA
TAFISX
TAF AMD
TISX 290118Z 2901/2924 08008KT P6SM VCSH FEW020 SCT040 OVC110
      TEMPO 2901/2902 3SM SHRA SCT015 BKN020
     FM291330 11012KT P6SM SCT030 BKN060
     FM292330 08008KT P6SM SCT020=



000
FTUS42 TJSJ 290118 AAA
TAFKPK
TAF AMD
TKPK 290118Z 2901/2924 08010KT P6SM SCT018 SCT040 OVC110
      TEMPO 2901/2903 BKN015
     FM291330 09012KT P6SM SCT020 SCT060
     FM292330 08008KT P6SM SCT018
      AMD NOT SKED 2902/2911=



000
FTUS42 TJSJ 282337
TAFJBQ
TAF
TJBQ 282337Z 2900/2924 10005KT P6SM SCT060 SCT110
     FM291330 08013KT P6SM SCT030 BKN060
     FM292330 10005KT P6SM SCT025
      AMD NOT SKED 2902/2911=



000
FTUS42 TJSJ 282337
TAFJMZ
TAF
TJMZ 282337Z 2900/2924 06005KT P6SM SCT060 SCT110
     FM291630 29010KT P6SM VCTS BKN030CB
     FM292330 06005KT P6SM SCT025
      AMD NOT SKED=



000
FTUS42 TJSJ 282337
TAFJPS
TAF
TJPS 282337Z 2900/2924 07005KT P6SM SCT060 SCT110
     FM291330 13010KT P6SM SCT030 BKN060
     FM292330 07005KT P6SM FEW030 SCT060
      AMD NOT SKED TIL 290300=



000
FTUS42 TJSJ 282337
TAFJSJ
TAF
TJSJ 282337Z 2900/2924 13005KT P6SM VCSH SCT025 SCT060 OVC110
     FM291330 10012KT P6SM SCT030 BKN060
     FM292330 10005KT P6SM SCT025=



000
FTUS42 TJSJ 282337
TAFISX
TAF
TISX 282337Z 2900/2924 08008KT P6SM VCSH FEW020 SCT040 OVC110
     FM291330 11012KT P6SM SCT030 BKN060
     FM292330 08008KT P6SM SCT020=



000
FTUS42 TJSJ 282337
TAFKPK
TAF
TKPK 282337Z 2900/2924 08008KT P6SM SCT018 SCT040 OVC110
     FM291330 09012KT P6SM SCT020 SCT060
     FM292330 08008KT P6SM SCT018
      AMD NOT SKED 2902/2911=



000
FTUS42 TJSJ 282337
TAFNCM
TAF
TNCM 282337Z 2900/2924 09008KT P6SM SCT018 SCT040 OVC110
     FM291330 11012KT P6SM SCT020 SCT060
     FM292330 09008KT P6SM SCT018=



000
FTUS42 TJSJ 282337
TAFIST
TAF
TIST 282337Z 2900/2924 09008KT P6SM VCSH SCT020 SCT040 OVC110
     FM291330 13012KT P6SM SCT030 BKN060
     FM292330 09008KT P6SM SCT020=



000
FTUS42 TJSJ 281915 CCB
TAFJBQ
TAF COR
TJBQ 281915Z 2819/2918 08010KT P6SM VCTS SCT020CB BKN040
      TEMPO 2819/2821 4SM TSRA SCT015CB BKN025
     FM282330 VRB05KT P6SM FEW030 BKN080
     FM291400 07010KT P6SM VCSH SCT030 BKN060
      AMD NOT SKED 2902/2911=



000
FTUS42 TJSJ 281913 AAA
TAFJMZ
TAF AMD
TJMZ 281913Z 2819/2918 24010KT P6SM VCTS SCT030CB
      TEMPO 2819/2821 4SM SHRA BKN025
     FM282330 07005KT P6SM FEW030 SCT060
     FM291500 24010KT P6SM VCSH SCT030 BKN080
      AMD NOT SKED=



    US Dept of Commerce
    National Oceanic and Atmospheric Administration
    National Weather Service
    1325 East West Highway
    Silver Spring, MD 20910
    Page Author: NWS Internet Services Team
Disclaimer
Information Quality
Credits
Glossary
Privacy Policy
Freedom of Information Act (FOIA)
About Us
Career Opportunities